createdAt,value
2023-07-05T00:01:21.061Z,63.44
2023-07-05T00:03:48.402Z,63.54
2023-07-05T00:06:15.507Z,63.78
2023-07-05T00:08:42.932Z,64.29
2023-07-05T00:11:10.801Z,64.29
2023-07-05T00:13:37.994Z,64.10
2023-07-05T00:16:05.742Z,63.99
2023-07-05T00:18:33.479Z,63.99
2023-07-05T00:21:05.641Z,63.81
2023-07-05T00:23:33.858Z,63.78
2023-07-05T00:26:01.237Z,63.76
2023-07-05T00:28:28.376Z,64.07
2023-07-05T00:30:55.460Z,63.78
2023-07-05T00:33:22.529Z,63.67
2023-07-05T00:35:50.410Z,64.24
2023-07-05T00:38:18.036Z,64.42
2023-07-05T00:40:45.820Z,64.46
2023-07-05T00:43:13.661Z,64.39
2023-07-05T00:45:53.641Z,64.29
2023-07-05T00:48:35.651Z,63.75
2023-07-05T00:51:17.506Z,63.84
2023-07-05T00:53:44.719Z,64.18
2023-07-05T00:56:14.823Z,64.09
2023-07-05T00:58:42.609Z,64.16
2023-07-05T01:04:06.926Z,63.95
2023-07-05T01:06:33.915Z,63.85
2023-07-05T01:09:01.116Z,63.60
2023-07-05T01:11:42.338Z,63.98
2023-07-05T01:14:15.898Z,64.01
2023-07-05T01:17:02.092Z,64.07
2023-07-05T01:19:55.643Z,63.92
2023-07-05T01:22:52.220Z,63.84
2023-07-05T01:25:27.726Z,63.90
2023-07-05T01:28:20.999Z,63.95
2023-07-05T01:31:08.218Z,63.90
2023-07-05T01:33:39.428Z,63.94
2023-07-05T01:36:07.134Z,63.79
2023-07-05T01:38:34.287Z,63.72
2023-07-05T01:41:02.910Z,64.05
2023-07-05T01:43:31.095Z,64.16
2023-07-05T01:45:58.108Z,64.09
2023-07-05T01:48:39.616Z,64.02
2023-07-05T01:51:10.037Z,63.99
2023-07-05T01:53:43.242Z,63.88
2023-07-05T01:56:14.300Z,63.85
2023-07-05T01:58:44.555Z,64.18
2023-07-05T02:01:13.087Z,64.03
2023-07-05T02:03:42.872Z,63.91
2023-07-05T02:06:10.942Z,63.83
2023-07-05T02:08:38.551Z,63.85
2023-07-05T02:11:05.677Z,63.81
2023-07-05T02:13:32.865Z,63.89
2023-07-05T02:16:00.389Z,63.92
2023-07-05T02:18:30.943Z,63.94
2023-07-05T02:20:58.162Z,63.95
2023-07-05T02:23:25.394Z,63.93
2023-07-05T02:25:53.421Z,64.03
2023-07-05T02:28:20.773Z,64.12
2023-07-05T02:30:48.307Z,64.05
2023-07-05T02:33:15.440Z,63.96
2023-07-05T02:35:42.498Z,63.92
2023-07-05T02:38:09.737Z,63.80
2023-07-05T02:40:36.832Z,63.80
2023-07-05T02:43:03.953Z,63.81
2023-07-05T02:45:31.289Z,63.82
2023-07-05T02:47:58.802Z,63.78
2023-07-05T02:50:25.858Z,63.65
2023-07-05T02:52:52.927Z,63.55
2023-07-05T02:55:20.495Z,63.43
2023-07-05T02:57:47.630Z,63.42
2023-07-05T03:00:14.901Z,63.59
2023-07-05T03:02:42.065Z,63.70
2023-07-05T03:05:09.726Z,63.80
2023-07-05T03:07:37.455Z,63.91
2023-07-05T03:10:04.933Z,64.01
2023-07-05T03:12:32.057Z,64.07
2023-07-05T03:14:59.933Z,64.20
2023-07-05T03:17:26.907Z,64.31
2023-07-05T03:19:57.768Z,64.42
2023-07-05T03:22:25.008Z,64.78
2023-07-05T03:24:53.118Z,65.07
2023-07-05T03:27:20.759Z,64.80
2023-07-05T03:29:49.376Z,64.71
2023-07-05T03:32:16.502Z,65.04
2023-07-05T03:34:43.776Z,65.13
2023-07-05T03:37:11.261Z,65.15
2023-07-05T03:39:38.532Z,64.91
2023-07-05T03:42:05.842Z,65.01
2023-07-05T03:44:33.259Z,65.71
2023-07-05T03:47:00.378Z,65.86
2023-07-05T03:49:27.380Z,65.96
2023-07-05T03:51:54.555Z,65.87
2023-07-05T03:54:24.638Z,66.11
2023-07-05T03:56:51.716Z,65.90
2023-07-05T03:59:19.277Z,65.82
2023-07-05T04:01:46.617Z,66.10
2023-07-05T04:04:13.852Z,66.03
2023-07-05T04:06:40.995Z,66.48
2023-07-05T04:09:08.472Z,66.45
2023-07-05T04:11:35.690Z,66.36
2023-07-05T04:14:03.141Z,66.38
2023-07-05T04:16:30.359Z,66.28
2023-07-05T04:18:58.562Z,66.03
2023-07-05T04:21:26.496Z,66.10
2023-07-05T04:23:54.086Z,65.94
2023-07-05T04:26:22.410Z,65.10
2023-07-05T04:28:49.920Z,65.17
2023-07-05T04:31:19.612Z,65.42
2023-07-05T04:33:47.350Z,64.81
2023-07-05T04:36:27.064Z,64.81
2023-07-05T04:38:56.308Z,65.43
2023-07-05T04:41:23.804Z,64.79
2023-07-05T04:43:53.269Z,65.58
2023-07-05T04:46:20.973Z,65.11
2023-07-05T04:48:48.084Z,64.28
2023-07-05T04:51:15.196Z,64.39
2023-07-05T04:53:42.913Z,64.80
2023-07-05T04:56:14.657Z,63.49
2023-07-05T04:58:42.046Z,61.87
2023-07-05T05:01:09.881Z,61.34
2023-07-05T05:03:37.643Z,60.57
2023-07-05T05:06:04.709Z,60.49
2023-07-05T05:08:32.707Z,60.92
2023-07-05T05:11:02.104Z,61.01
2023-07-05T05:13:33.825Z,61.34
2023-07-05T05:16:01.489Z,61.32
2023-07-05T05:18:29.992Z,61.77
2023-07-05T05:20:57.681Z,61.98
2023-07-05T05:23:25.561Z,62.82
2023-07-05T05:25:52.684Z,63.79
2023-07-05T05:28:19.774Z,63.15
2023-07-05T05:30:47.415Z,62.91
2023-07-05T05:33:16.289Z,62.36
2023-07-05T05:35:52.474Z,61.97
2023-07-05T05:38:20.479Z,62.13
2023-07-05T05:40:50.185Z,62.51
2023-07-05T05:43:17.561Z,61.75
2023-07-05T05:45:45.063Z,61.76
2023-07-05T05:48:12.642Z,61.35
2023-07-05T05:50:40.085Z,61.19
2023-07-05T05:53:07.194Z,61.91
2023-07-05T05:55:34.353Z,60.80
2023-07-05T05:58:01.710Z,60.58
2023-07-05T06:00:30.201Z,60.40
2023-07-05T06:02:58.973Z,60.29
2023-07-05T06:05:26.849Z,59.51
2023-07-05T06:07:54.892Z,59.69
2023-07-05T06:10:23.897Z,60.08
2023-07-05T06:12:51.838Z,60.26
2023-07-05T06:15:21.272Z,61.02
2023-07-05T06:17:48.491Z,61.63
2023-07-05T06:20:19.049Z,61.31
2023-07-05T06:22:46.219Z,61.47
2023-07-05T06:25:13.478Z,60.94
2023-07-05T06:27:42.100Z,61.48
2023-07-05T06:30:09.855Z,61.75
2023-07-05T06:32:38.884Z,61.58
2023-07-05T06:35:06.904Z,61.60
2023-07-05T06:37:34.280Z,61.41
2023-07-05T06:40:01.366Z,61.08
2023-07-05T06:42:30.135Z,61.09
2023-07-05T06:44:57.500Z,61.38
2023-07-05T06:47:24.764Z,61.43
2023-07-05T06:49:53.272Z,61.07
2023-07-05T06:52:21.312Z,60.79
2023-07-05T06:54:48.496Z,60.26
2023-07-05T06:57:16.171Z,59.84
2023-07-05T06:59:45.912Z,59.02
2023-07-05T07:02:13.385Z,58.97
2023-07-05T07:04:40.833Z,59.11
2023-07-05T07:07:08.066Z,58.76
2023-07-05T07:09:35.355Z,57.42
2023-07-05T07:12:02.875Z,57.93
2023-07-05T07:14:30.373Z,57.82
2023-07-05T07:16:57.625Z,56.76
2023-07-05T07:19:27.841Z,55.54
2023-07-05T07:21:55.085Z,55.94
2023-07-05T07:24:22.482Z,56.00
2023-07-05T07:26:49.518Z,55.68
2023-07-05T07:29:21.465Z,54.46
2023-07-05T07:31:49.422Z,54.92
2023-07-05T07:34:23.808Z,53.06
2023-07-05T07:36:52.747Z,52.75
2023-07-05T07:39:33.611Z,53.21
2023-07-05T07:42:02.606Z,52.85
2023-07-05T07:44:31.078Z,52.30
2023-07-05T07:47:01.130Z,52.89
2023-07-05T07:49:29.318Z,51.60
2023-07-05T07:51:57.117Z,51.57
2023-07-05T07:54:33.219Z,51.34
2023-07-05T07:57:01.481Z,51.64
2023-07-05T07:59:28.687Z,51.84
2023-07-05T08:01:57.544Z,51.65
2023-07-05T08:04:25.037Z,51.87
2023-07-05T08:06:53.124Z,49.62
2023-07-05T08:09:24.568Z,49.12
2023-07-05T08:11:53.748Z,49.29
2023-07-05T08:14:20.974Z,47.98
2023-07-05T08:16:48.992Z,46.53
2023-07-05T08:19:17.180Z,47.74
2023-07-05T08:21:45.665Z,48.70
2023-07-05T08:26:46.706Z,48.28
2023-07-05T08:29:13.909Z,47.13
2023-07-05T08:31:43.617Z,48.13
2023-07-05T08:34:12.365Z,48.41
2023-07-05T08:36:40.996Z,48.29
2023-07-05T08:39:09.476Z,47.53
2023-07-05T08:41:40.032Z,46.57
2023-07-05T08:44:11.190Z,46.86
2023-07-05T08:46:40.823Z,46.75
2023-07-05T08:49:16.871Z,47.17
2023-07-05T08:51:44.143Z,47.70
2023-07-05T08:54:14.875Z,47.36
2023-07-05T08:56:46.665Z,46.67
2023-07-05T08:59:13.843Z,46.55
2023-07-05T09:01:43.949Z,46.93
2023-07-05T09:04:20.989Z,47.83
2023-07-05T09:07:10.480Z,47.41
2023-07-05T09:09:38.016Z,47.80
2023-07-05T09:12:28.230Z,48.13
2023-07-05T09:14:58.702Z,47.94
2023-07-05T09:17:34.705Z,48.06
2023-07-05T09:20:28.251Z,47.89
2023-07-05T09:22:57.626Z,47.69
2023-07-05T09:25:40.524Z,47.09
2023-07-05T09:28:30.906Z,46.46
2023-07-05T09:31:01.782Z,46.39
2023-07-05T09:33:35.955Z,44.92
2023-07-05T09:36:06.250Z,45.03
2023-07-05T09:38:40.014Z,44.62
2023-07-05T09:41:11.322Z,44.78
2023-07-05T09:43:38.496Z,45.13
2023-07-05T09:46:11.481Z,45.08
2023-07-05T09:48:43.064Z,42.46
2023-07-05T09:51:11.399Z,42.49
2023-07-05T09:53:54.526Z,43.29
2023-07-05T09:56:30.525Z,43.93
2023-07-05T09:59:17.332Z,42.99
2023-07-05T10:01:49.016Z,40.96
2023-07-05T10:04:33.249Z,38.94
2023-07-05T10:07:04.307Z,39.39
2023-07-05T10:09:31.272Z,40.03
2023-07-05T10:12:09.563Z,41.00
2023-07-05T10:14:36.538Z,41.41
2023-07-05T10:17:08.974Z,41.38
2023-07-05T10:19:42.531Z,41.17
2023-07-05T10:22:17.339Z,41.00
2023-07-05T10:24:48.884Z,39.70
2023-07-05T10:27:21.024Z,39.12
2023-07-05T10:29:51.720Z,37.94
2023-07-05T10:32:20.326Z,39.12
2023-07-05T10:34:52.065Z,39.94
2023-07-05T10:37:33.453Z,38.77
2023-07-05T10:40:02.058Z,38.41
2023-07-05T10:42:29.984Z,39.42
2023-07-05T10:44:57.392Z,39.84
2023-07-05T10:47:25.013Z,38.70
2023-07-05T10:49:53.304Z,39.09
2023-07-05T10:52:22.631Z,39.37
2023-07-05T10:55:22.121Z,39.07
2023-07-05T10:58:15.534Z,38.78
2023-07-05T11:01:02.930Z,38.67
2023-07-05T11:03:32.702Z,38.68
2023-07-05T11:06:01.369Z,37.87
2023-07-05T11:11:04.393Z,38.62
2023-07-05T11:13:31.759Z,38.70
2023-07-05T11:16:01.594Z,37.36
2023-07-05T11:18:30.348Z,37.02
2023-07-05T11:20:59.046Z,37.18
2023-07-05T11:23:48.005Z,35.75
2023-07-05T11:26:38.485Z,35.79
2023-07-05T11:29:24.353Z,36.80
2023-07-05T11:31:51.348Z,36.46
2023-07-05T11:34:27.555Z,36.51
2023-07-05T11:37:05.429Z,35.66
2023-07-05T11:39:39.924Z,36.06
2023-07-05T11:42:16.680Z,36.44
2023-07-05T11:44:44.775Z,36.32
2023-07-05T11:47:16.890Z,36.36
2023-07-05T11:49:44.443Z,34.95
2023-07-05T11:52:17.125Z,34.68
2023-07-05T11:54:56.034Z,34.87
2023-07-05T11:57:23.611Z,35.72
2023-07-05T11:59:50.758Z,35.36
2023-07-05T12:02:36.826Z,34.85
2023-07-05T12:05:06.434Z,34.03
2023-07-05T12:07:33.574Z,34.10
2023-07-05T12:10:01.177Z,34.26
2023-07-05T12:12:28.315Z,34.89
2023-07-05T12:14:55.282Z,34.90
2023-07-05T12:17:25.849Z,35.21
2023-07-05T12:19:53.028Z,35.53
2023-07-05T12:22:23.353Z,35.74
2023-07-05T12:24:53.742Z,35.79
2023-07-05T12:27:23.543Z,35.61
2023-07-05T12:29:51.663Z,33.99
2023-07-05T12:32:23.581Z,34.39
2023-07-05T12:35:07.178Z,35.18
2023-07-05T12:37:34.797Z,36.04
2023-07-05T12:40:12.269Z,36.75
2023-07-05T12:42:49.779Z,37.15
2023-07-05T12:45:18.597Z,37.59
2023-07-05T12:47:45.727Z,36.13
2023-07-05T12:50:13.037Z,36.22
2023-07-05T12:52:40.360Z,37.02
2023-07-05T12:55:24.567Z,35.77
2023-07-05T12:57:53.840Z,36.50
2023-07-05T13:00:25.588Z,36.79
2023-07-05T13:02:55.024Z,35.80
2023-07-05T13:05:22.581Z,35.39
2023-07-05T13:07:51.940Z,35.28
2023-07-05T13:10:19.228Z,34.37
2023-07-05T13:12:47.514Z,34.94
2023-07-05T13:15:15.108Z,35.77
2023-07-05T13:17:42.312Z,35.95
2023-07-05T13:20:10.446Z,36.05
2023-07-05T13:23:06.251Z,36.55
2023-07-05T13:25:52.255Z,37.05
2023-07-05T13:28:23.789Z,37.08
2023-07-05T13:30:55.776Z,37.22
2023-07-05T13:33:29.921Z,37.53
2023-07-05T13:35:58.116Z,37.57
2023-07-05T13:38:25.329Z,37.33
2023-07-05T13:40:55.113Z,37.33
2023-07-05T13:43:22.746Z,36.94
2023-07-05T13:45:50.485Z,37.15
2023-07-05T13:48:18.859Z,37.36
2023-07-05T13:50:46.596Z,38.11
2023-07-05T13:53:23.352Z,38.04
2023-07-05T13:55:51.025Z,37.89
2023-07-05T13:58:20.073Z,37.95
2023-07-05T14:00:48.635Z,37.97
2023-07-05T14:03:17.191Z,37.91
2023-07-05T14:05:44.478Z,37.72
2023-07-05T14:08:17.570Z,37.99
2023-07-05T14:10:47.387Z,38.07
2023-07-05T14:13:17.580Z,38.35
2023-07-05T14:15:47.783Z,38.62
2023-07-05T14:18:17.693Z,38.29
2023-07-05T14:20:46.448Z,38.47
2023-07-05T14:23:17.249Z,38.08
2023-07-05T14:25:48.679Z,38.20
2023-07-05T14:28:15.901Z,37.83
2023-07-05T14:30:44.317Z,37.10
2023-07-05T14:33:12.584Z,37.22
2023-07-05T14:35:39.771Z,36.56
2023-07-05T14:38:07.074Z,36.01
2023-07-05T14:40:34.848Z,36.01
2023-07-05T14:43:02.199Z,35.85
2023-07-05T14:45:32.995Z,36.14
2023-07-05T14:48:02.741Z,36.56
2023-07-05T14:50:31.454Z,36.67
2023-07-05T14:53:01.118Z,36.83
2023-07-05T14:55:28.761Z,37.34
2023-07-05T14:57:56.527Z,37.68
2023-07-05T15:00:24.911Z,37.55
2023-07-05T15:02:56.452Z,37.82
2023-07-05T15:05:23.628Z,37.98
2023-07-05T15:07:52.198Z,38.36
2023-07-05T15:10:25.111Z,38.62
2023-07-05T15:13:21.645Z,38.92
2023-07-05T15:21:20.326Z,41.62
2023-07-05T15:28:18.362Z,42.48
2023-07-05T15:38:52.633Z,47.32
2023-07-05T15:41:19.732Z,48.59
2023-07-05T15:43:46.869Z,50.38
2023-07-05T15:46:25.563Z,52.24
2023-07-05T15:48:59.445Z,53.15
2023-07-05T15:51:26.609Z,54.58
2023-07-05T15:53:54.504Z,55.87
2023-07-05T15:56:21.140Z,56.83
2023-07-05T15:58:51.076Z,58.19
2023-07-05T16:05:46.309Z,61.99
2023-07-05T16:12:00.590Z,63.91
2023-07-05T16:14:28.156Z,62.99
2023-07-05T16:16:55.545Z,62.94
2023-07-05T16:19:23.116Z,63.33
2023-07-05T16:21:50.018Z,62.38
2023-07-05T16:24:16.682Z,62.93
2023-07-05T16:26:43.462Z,64.09
2023-07-05T16:29:10.093Z,63.40
2023-07-05T16:31:38.327Z,63.04
2023-07-05T16:34:05.104Z,62.61
2023-07-05T16:36:31.937Z,63.29
2023-07-05T16:38:59.732Z,62.80
2023-07-05T16:41:28.590Z,63.45
2023-07-05T16:43:55.975Z,63.66
2023-07-05T16:46:23.942Z,64.05
2023-07-05T16:48:50.983Z,64.18
2023-07-05T16:51:18.124Z,64.68
2023-07-05T16:53:46.330Z,63.37
2023-07-05T16:56:13.117Z,63.42
2023-07-05T16:58:39.700Z,63.74
2023-07-05T17:01:09.290Z,64.16
2023-07-05T17:03:40.488Z,62.57
2023-07-05T17:06:09.595Z,63.28
2023-07-05T17:08:38.089Z,64.77
2023-07-05T17:11:06.605Z,64.44
2023-07-05T17:13:35.029Z,64.72
2023-07-05T17:16:02.914Z,63.55
2023-07-05T17:18:30.113Z,63.31
2023-07-05T17:21:02.228Z,63.88
2023-07-05T17:23:29.235Z,63.90
2023-07-05T17:26:06.951Z,65.04
2023-07-05T17:28:36.265Z,64.73
2023-07-05T17:31:08.382Z,63.73
2023-07-05T17:33:35.859Z,64.11
2023-07-05T17:36:04.367Z,65.57
2023-07-05T17:38:32.533Z,65.64
2023-07-05T17:40:59.716Z,67.59
2023-07-05T17:43:31.445Z,65.78
2023-07-05T17:46:11.829Z,66.59
2023-07-05T17:48:39.726Z,66.38
2023-07-05T17:51:07.157Z,65.75
2023-07-05T17:53:33.579Z,66.46
2023-07-05T17:56:00.096Z,65.67
2023-07-05T17:58:26.572Z,65.97
2023-07-05T18:00:54.131Z,66.89
2023-07-05T18:03:25.512Z,67.97
2023-07-05T18:05:55.435Z,69.00
2023-07-05T18:08:22.767Z,69.01
2023-07-05T18:10:57.317Z,69.18
2023-07-05T18:13:24.177Z,68.80
2023-07-05T18:16:23.312Z,68.04
2023-07-05T18:18:50.786Z,67.41
2023-07-05T18:21:17.822Z,68.44
2023-07-05T18:23:48.196Z,68.40
2023-07-05T18:26:17.696Z,68.81
2023-07-05T18:28:48.667Z,69.03
2023-07-05T18:31:14.925Z,68.84
2023-07-05T18:33:44.054Z,68.84
2023-07-05T18:36:13.139Z,68.72
2023-07-05T18:38:41.865Z,68.66
2023-07-05T18:41:15.741Z,68.64
2023-07-05T18:43:44.322Z,68.91
2023-07-05T18:46:13.647Z,68.59
2023-07-05T18:48:45.979Z,67.79
2023-07-05T18:51:16.103Z,69.65
2023-07-05T18:53:44.627Z,70.83
2023-07-05T18:56:15.393Z,70.69
2023-07-05T18:58:42.850Z,70.16
2023-07-05T19:01:17.265Z,69.90
2023-07-05T19:03:47.437Z,69.18
2023-07-05T19:06:19.815Z,69.59
2023-07-05T19:08:49.811Z,68.30
2023-07-05T19:11:25.773Z,68.71
2023-07-05T19:13:55.084Z,68.84
2023-07-05T19:16:29.251Z,68.41
2023-07-05T19:18:59.872Z,69.75
2023-07-05T19:21:28.353Z,70.43
2023-07-05T19:23:56.835Z,70.68
2023-07-05T19:26:25.481Z,70.54
2023-07-05T19:28:53.784Z,70.44
2023-07-05T19:31:27.720Z,69.15
2023-07-05T19:33:56.586Z,70.41
2023-07-05T19:36:26.431Z,70.49
2023-07-05T19:38:55.260Z,70.38
2023-07-05T19:41:24.822Z,68.94
2023-07-05T19:43:52.954Z,70.31
2023-07-05T19:46:28.099Z,70.83
2023-07-05T19:49:02.421Z,70.66
2023-07-05T19:51:32.407Z,70.65
2023-07-05T19:54:00.743Z,70.76
2023-07-05T19:56:30.759Z,70.76
2023-07-05T19:59:01.571Z,70.68
2023-07-05T20:01:30.390Z,70.71
2023-07-05T20:04:03.133Z,70.44
2023-07-05T20:06:32.737Z,70.31
2023-07-05T20:09:01.622Z,70.38
2023-07-05T20:11:31.108Z,69.98
2023-07-05T20:13:59.495Z,70.06
2023-07-05T20:16:27.931Z,69.07
2023-07-05T20:18:57.220Z,68.65
2023-07-05T20:21:26.304Z,69.18
2023-07-05T20:23:53.787Z,69.91
2023-07-05T20:26:23.708Z,71.35
2023-07-05T20:28:52.223Z,71.66
2023-07-05T20:31:22.830Z,70.90
2023-07-05T20:33:51.473Z,70.86
2023-07-05T20:36:19.823Z,71.73
2023-07-05T20:38:48.108Z,71.24
2023-07-05T20:41:17.355Z,71.35
2023-07-05T20:43:44.454Z,71.15
2023-07-05T20:46:12.604Z,71.92
2023-07-05T20:48:41.388Z,72.47
2023-07-05T20:51:17.841Z,72.24
2023-07-05T20:53:46.370Z,72.41
2023-07-05T20:56:16.761Z,71.27
2023-07-05T20:58:45.357Z,72.36
2023-07-05T21:01:13.008Z,72.39
2023-07-05T21:03:41.943Z,71.78
2023-07-05T21:06:10.552Z,72.37
2023-07-05T21:08:40.279Z,72.20
2023-07-05T21:11:08.740Z,71.90
2023-07-05T21:13:36.959Z,72.19
2023-07-05T21:16:09.453Z,71.24
2023-07-05T21:18:37.750Z,71.47
2023-07-05T21:21:06.602Z,72.57
2023-07-05T21:23:34.943Z,71.83
2023-07-05T21:26:05.918Z,71.43
2023-07-05T21:28:34.392Z,71.96
2023-07-05T21:31:02.850Z,72.64
2023-07-05T21:33:32.541Z,72.94
2023-07-05T21:36:00.505Z,72.83
2023-07-05T21:38:28.894Z,72.66
2023-07-05T21:40:58.946Z,72.18
2023-07-05T21:43:27.519Z,72.44
2023-07-05T21:45:54.979Z,72.07
2023-07-05T21:48:29.135Z,72.25
2023-07-05T21:50:57.451Z,71.01
2023-07-05T21:53:24.263Z,71.41
2023-07-05T21:55:55.704Z,72.28
2023-07-05T21:58:23.783Z,72.37
2023-07-05T22:00:51.678Z,72.36
2023-07-05T22:03:19.809Z,71.29
2023-07-05T22:05:53.001Z,71.94
2023-07-05T22:08:21.093Z,72.54
2023-07-05T22:10:48.909Z,72.58
2023-07-05T22:13:15.807Z,72.44
2023-07-05T22:15:45.368Z,72.22
2023-07-05T22:18:12.616Z,71.71
2023-07-05T22:20:42.670Z,71.65
2023-07-05T22:23:10.068Z,71.56
2023-07-05T22:25:37.198Z,71.42
2023-07-05T22:28:04.863Z,71.22
2023-07-05T22:30:31.991Z,71.27
2023-07-05T22:32:58.737Z,71.09
2023-07-05T22:35:29.465Z,71.14
2023-07-05T22:37:59.298Z,71.00
2023-07-05T22:40:29.741Z,70.66
2023-07-05T22:42:56.896Z,70.74
2023-07-05T22:45:24.052Z,70.85
2023-07-05T22:47:51.160Z,71.13
2023-07-05T22:50:18.587Z,70.90
2023-07-05T22:52:45.626Z,70.77
2023-07-05T22:55:12.820Z,70.74
2023-07-05T22:57:39.681Z,70.70
2023-07-05T23:00:15.092Z,70.68
2023-07-05T23:02:45.476Z,70.57
2023-07-05T23:05:12.592Z,70.31
2023-07-05T23:07:39.295Z,70.14
2023-07-05T23:10:07.028Z,70.13
2023-07-05T23:12:33.741Z,69.53
2023-07-05T23:15:00.949Z,69.34
2023-07-05T23:17:28.208Z,69.73
2023-07-05T23:19:54.980Z,70.78
2023-07-05T23:22:21.611Z,70.71
2023-07-05T23:24:51.474Z,70.57
2023-07-05T23:27:18.222Z,70.52
2023-07-05T23:29:46.217Z,70.64
2023-07-05T23:32:16.136Z,69.72
2023-07-05T23:34:42.954Z,70.84
2023-07-05T23:37:09.861Z,71.29
2023-07-05T23:39:38.775Z,70.93
2023-07-05T23:42:05.842Z,70.69
2023-07-05T23:44:39.615Z,70.39
2023-07-05T23:47:07.064Z,69.72
2023-07-05T23:49:35.413Z,70.22
2023-07-05T23:52:03.373Z,70.58
2023-07-05T23:54:32.504Z,70.66
2023-07-05T23:57:05.170Z,70.72
2023-07-05T23:59:32.079Z,70.88
